Terminal Aerodrome Forecast
Issued by NWS

Current Version | Previous Version | Graphics & Text | Print | Product List | Glossary On
Versions: 1 2 3 4 5 6 7 8 9 10 11 12 13 14 15 16 17 18 19 20
457
FTUS41 KPBZ 041121
TAFMGW
TAF
KMGW 041121Z 0412/0512 VRB03KT P6SM BKN080
     FM050300 14004KT 6SM -SHRA OVC035
     FM050600 17006KT 4SM -SHRA OVC020
     FM051000 27010KT P6SM VCSH SCT008 BKN012=

USA.gov is the U.S. government's official web portal to all federal, state and local government web resources and services.